Time;durP1;ratioP1;P1;durP2;ratioP2;P2;SDS_P1;SDS_P2;PMS_P1;PMS_P2;Temp;Humidity;BMP_temperature;BMP_pressure;BME280_temperature;BME280_humidity;BME280_pressure;Samples;Min_cycle;Max_cycle;Signal;HPM_P1;HPM_P2
2023/04/27 00:01:34;;;;;;;8.30;2.60;;;;;;;;;;5121358;28;20501;-68
2023/04/27 00:04:03;;;;;;;6.83;2.80;;;;;;;;;;5121815;28;20538;-69
2023/04/27 00:06:31;;;;;;;6.03;2.70;;;;;;;;;;5120080;28;20717;-71
2023/04/27 00:09:00;;;;;;;5.97;2.90;;;;;;;;;;5121033;28;20455;-69
2023/04/27 00:11:29;;;;;;;3.73;2.60;;;;;;;;;;5120616;28;20443;-71
2023/04/27 00:13:57;;;;;;;6.70;2.53;;;;;;;;;;5122390;28;20454;-70
2023/04/27 00:16:27;;;;;;;3.53;1.70;;;;;;;;;;5121164;28;20479;-70
2023/04/27 00:18:56;;;;;;;5.43;2.40;;;;;;;;;;5120946;28;20463;-69
2023/04/27 00:21:24;;;;;;;3.60;2.30;;;;;;;;;;5119007;28;20827;-69
2023/04/27 00:23:52;;;;;;;5.93;2.40;;;;;;;;;;5121082;28;20807;-69
2023/04/27 00:26:21;;;;;;;9.80;3.90;;;;;;;;;;5118646;28;20478;-70
2023/04/27 00:28:49;;;;;;;10.40;3.53;;;;;;;;;;5124677;27;20544;-69
2023/04/27 00:31:19;;;;;;;7.73;4.03;;;;;;;;;;5128507;27;20478;-69
2023/04/27 00:33:50;;;;;;;9.33;3.80;;;;;;;;;;5128119;27;20866;-70
2023/04/27 00:36:18;;;;;;;12.13;4.10;;;;;;;;;;5126583;27;20481;-69
2023/04/27 00:38:49;;;;;;;7.63;3.80;;;;;;;;;;5121255;28;20447;-69
2023/04/27 00:41:18;;;;;;;6.50;2.97;;;;;;;;;;5127214;27;20447;-70
2023/04/27 00:43:47;;;;;;;7.50;3.97;;;;;;;;;;5126349;27;20858;-70
2023/04/27 00:46:19;;;;;;;6.60;3.37;;;;;;;;;;5128154;27;20718;-70
2023/04/27 00:48:50;;;;;;;5.73;2.60;;;;;;;;;;5126186;27;20551;-69
2023/04/27 00:51:20;;;;;;;5.80;2.00;;;;;;;;;;5122698;27;20447;-69
2023/04/27 00:53:51;;;;;;;5.10;2.40;;;;;;;;;;5127280;27;20479;-71
2023/04/27 00:56:21;;;;;;;4.10;2.17;;;;;;;;;;5116208;28;20524;-70
2023/04/27 00:58:49;;;;;;;4.07;2.77;;;;;;;;;;5120213;28;20547;-70
2023/04/27 01:01:19;;;;;;;4.70;2.53;;;;;;;;;;5120933;28;20537;-70
2023/04/27 01:04:04;;;;;;;4.03;2.40;;;;;;;;;;5107247;28;20575;-70
2023/04/27 01:06:49;;;;;;;;;;;;;;;;;;;;;
2023/04/27 01:09:20;;;;;;;4.53;2.23;;;;;;;;;;5097231;28;20862;-69
2023/04/27 01:11:52;;;;;;;5.80;2.50;;;;;;;;;;5109438;27;20785;-69
2023/04/27 01:14:22;;;;;;;4.07;2.53;;;;;;;;;;5099955;28;20525;-68
2023/04/27 01:16:51;;;;;;;4.83;2.70;;;;;;;;;;5112250;28;20518;-69
2023/04/27 01:19:21;;;;;;;11.90;3.40;;;;;;;;;;5117965;28;20554;-70
2023/04/27 01:21:51;;;;;;;8.70;4.37;;;;;;;;;;5109205;27;20532;-69
2023/04/27 01:24:29;;;;;;;8.60;2.60;;;;;;;;;;5117872;28;20917;-69
2023/04/27 01:26:57;;;;;;;6.03;2.93;;;;;;;;;;5118289;28;20857;-68
2023/04/27 01:29:26;;;;;;;7.70;3.20;;;;;;;;;;5124169;27;20466;-70
2023/04/27 01:31:54;;;;;;;7.77;2.57;;;;;;;;;;5138564;27;20466;-69
2023/04/27 01:34:23;;;;;;;3.10;2.07;;;;;;;;;;5140817;27;20470;-70
2023/04/27 01:36:51;;;;;;;3.53;1.83;;;;;;;;;;5139975;27;20521;-70
2023/04/27 01:39:20;;;;;;;4.03;2.50;;;;;;;;;;5140897;27;20945;-69
2023/04/27 01:41:50;;;;;;;9.37;2.70;;;;;;;;;;5141093;27;20869;-70
2023/04/27 01:44:20;;;;;;;6.60;2.10;;;;;;;;;;5139958;27;20461;-70
2023/04/27 01:46:48;;;;;;;8.93;2.87;;;;;;;;;;5127666;27;20530;-69
2023/04/27 01:49:20;;;;;;;8.67;3.30;;;;;;;;;;5119190;28;20466;-69
2023/04/27 01:51:49;;;;;;;4.20;2.20;;;;;;;;;;5119787;28;20542;-70
2023/04/27 01:54:17;;;;;;;5.50;2.33;;;;;;;;;;5119565;28;20490;-69
2023/04/27 01:56:48;;;;;;;7.17;3.00;;;;;;;;;;5119251;28;20483;-69
2023/04/27 01:59:18;;;;;;;7.23;3.37;;;;;;;;;;5120093;28;20470;-69
2023/04/27 02:01:46;;;;;;;4.90;2.23;;;;;;;;;;5119624;28;20448;-69
2023/04/27 02:04:15;;;;;;;8.47;3.07;;;;;;;;;;5122864;28;20455;-71
2023/04/27 02:06:43;;;;;;;10.83;2.87;;;;;;;;;;5118744;28;20512;-70
2023/04/27 02:09:11;;;;;;;11.77;3.20;;;;;;;;;;5116361;28;20753;-70
2023/04/27 02:11:40;;;;;;;5.90;3.17;;;;;;;;;;5119392;28;20451;-69
2023/04/27 02:14:10;;;;;;;5.50;2.80;;;;;;;;;;5119428;28;20490;-70
2023/04/27 02:25:29;;;;;;;8.60;2.63;;;;;;;;;;5114109;28;20881;-70
2023/04/27 02:30:40;;;;;;;8.20;3.10;;;;;;;;;;5117790;28;20769;-69
2023/04/27 02:33:08;;;;;;;7.33;3.13;;;;;;;;;;5119755;28;20447;-69
2023/04/27 02:35:42;;;;;;;6.10;2.77;;;;;;;;;;5118413;28;20491;-70
2023/04/27 02:40:58;;;;;;;5.30;2.97;;;;;;;;;;5118114;28;20894;-70
2023/04/27 02:43:27;;;;;;;6.13;3.53;;;;;;;;;;5121291;28;20519;-70
2023/04/27 02:45:56;;;;;;;7.30;3.10;;;;;;;;;;5119145;28;20486;-70
2023/04/27 02:48:25;;;;;;;7.27;3.37;;;;;;;;;;5120144;28;20450;-70
2023/04/27 02:53:51;;;;;;;6.70;2.97;;;;;;;;;;5120507;28;20443;-70
2023/04/27 02:59:13;;;;;;;5.63;3.30;;;;;;;;;;5119632;28;20424;-69
2023/04/27 03:01:43;;;;;;;6.63;3.03;;;;;;;;;;5118583;28;20485;-70
2023/04/27 03:04:13;;;;;;;6.13;3.17;;;;;;;;;;5119258;28;20444;-69
2023/04/27 03:06:45;;;;;;;6.27;2.73;;;;;;;;;;5118389;28;20482;-69
2023/04/27 03:09:15;;;;;;;7.00;2.70;;;;;;;;;;5118532;28;20452;-70
2023/04/27 03:14:26;;;;;;;5.00;2.57;;;;;;;;;;5118307;28;20541;-69
2023/04/27 03:16:56;;;;;;;5.90;3.27;;;;;;;;;;5117330;28;20789;-69
2023/04/27 03:19:37;;;;;;;8.10;3.50;;;;;;;;;;5126462;27;20544;-69
2023/04/27 03:22:12;;;;;;;4.13;2.57;;;;;;;;;;5065916;28;20523;-70
2023/04/27 03:24:42;;;;;;;8.93;3.57;;;;;;;;;;5117794;28;20451;-70
2023/04/27 03:27:13;;;;;;;8.00;2.90;;;;;;;;;;5117276;28;20509;-70
2023/04/27 03:29:41;;;;;;;11.93;4.10;;;;;;;;;;5117098;28;20839;-69
2023/04/27 03:32:10;;;;;;;6.00;2.87;;;;;;;;;;5119983;28;20462;-70
2023/04/27 03:34:38;;;;;;;7.17;3.33;;;;;;;;;;5118142;28;20545;-70
2023/04/27 03:37:06;;;;;;;11.47;3.93;;;;;;;;;;5118267;28;20486;-68
2023/04/27 03:39:35;;;;;;;4.03;2.60;;;;;;;;;;5119201;28;20459;-70
2023/04/27 03:42:17;;;;;;;7.10;3.10;;;;;;;;;;5116884;28;20455;-70
2023/04/27 03:44:48;;;;;;;6.03;3.03;;;;;;;;;;5114131;28;20907;-70
2023/04/27 03:50:07;;;;;;;8.50;2.80;;;;;;;;;;5118376;28;20538;-69
2023/04/27 03:52:40;;;;;;;7.07;4.03;;;;;;;;;;5115752;28;20482;-69
2023/04/27 03:55:22;;;;;;;5.60;2.90;;;;;;;;;;5117307;28;21006;-69
2023/04/27 03:57:55;;;;;;;5.50;3.40;;;;;;;;;;5114309;28;20482;-70
2023/04/27 04:00:25;;;;;;;11.13;4.93;;;;;;;;;;5117199;28;20459;-70
2023/04/27 04:06:02;;;;;;;16.57;4.30;;;;;;;;;;5105887;28;20546;-69
2023/04/27 04:11:15;;;;;;;5.87;3.00;;;;;;;;;;5114410;28;20472;-70
2023/04/27 04:13:46;;;;;;;5.73;2.80;;;;;;;;;;5116194;28;20874;-70
2023/04/27 04:16:23;;;;;;;4.40;3.37;;;;;;;;;;5115496;28;20519;-70
2023/04/27 04:19:01;;;;;;;5.47;3.57;;;;;;;;;;5115443;28;20849;-70
2023/04/27 04:24:28;;;;;;;7.40;3.10;;;;;;;;;;5118198;28;20427;-71
2023/04/27 04:29:39;;;;;;;5.70;2.97;;;;;;;;;;5138232;28;20875;-69
2023/04/27 04:32:16;;;;;;;6.03;3.60;;;;;;;;;;5140910;27;20487;-71
2023/04/27 04:34:46;;;;;;;5.10;3.00;;;;;;;;;;5142510;27;20510;-70
2023/04/27 04:37:18;;;;;;;6.97;3.37;;;;;;;;;;5142741;27;20588;-69
2023/04/27 04:39:46;;;;;;;4.97;3.43;;;;;;;;;;5143783;27;20491;-71
2023/04/27 04:42:14;;;;;;;8.10;4.00;;;;;;;;;;5142843;27;20454;-69
2023/04/27 04:44:43;;;;;;;10.20;4.53;;;;;;;;;;5141997;27;21068;-70
2023/04/27 04:47:13;;;;;;;9.60;3.80;;;;;;;;;;5141707;27;20510;-70
2023/04/27 04:49:43;;;;;;;6.47;3.87;;;;;;;;;;5140796;27;20481;-69
2023/04/27 04:52:12;;;;;;;7.60;3.60;;;;;;;;;;5140945;27;20444;-70
2023/04/27 04:54:40;;;;;;;5.87;3.30;;;;;;;;;;5139804;27;20446;-69
2023/04/27 04:57:09;;;;;;;6.27;4.07;;;;;;;;;;5105500;27;20480;-70
2023/04/27 04:59:38;;;;;;;6.00;3.60;;;;;;;;;;5097904;28;20444;-70
2023/04/27 05:02:20;;;;;;;7.27;3.50;;;;;;;;;;5097915;28;20453;-69
2023/04/27 05:04:55;;;;;;;12.90;4.77;;;;;;;;;;5097270;28;21052;-70
2023/04/27 05:07:24;;;;;;;6.70;4.43;;;;;;;;;;5097145;28;20456;-70
2023/04/27 05:10:00;;;;;;;7.13;3.37;;;;;;;;;;5098455;28;20452;-70
2023/04/27 05:12:31;;;;;;;9.70;4.67;;;;;;;;;;5118919;28;20519;-69
2023/04/27 05:15:05;;;;;;;6.83;3.73;;;;;;;;;;5118332;28;20862;-71
2023/04/27 05:17:35;;;;;;;6.43;3.20;;;;;;;;;;5118480;28;20483;-70
2023/04/27 05:20:06;;;;;;;8.17;3.47;;;;;;;;;;5118119;28;20750;-71
2023/04/27 05:22:38;;;;;;;24.60;4.13;;;;;;;;;;5116529;28;20886;-69
2023/04/27 05:25:07;;;;;;;9.00;3.03;;;;;;;;;;5113392;28;20466;-70
2023/04/27 05:27:35;;;;;;;8.40;3.53;;;;;;;;;;5114738;28;20508;-69
2023/04/27 05:30:08;;;;;;;9.60;4.07;;;;;;;;;;5112669;28;20455;-69
2023/04/27 05:32:45;;;;;;;6.60;2.90;;;;;;;;;;5110157;28;20454;-70
2023/04/27 05:35:16;;;;;;;7.13;3.83;;;;;;;;;;5111903;28;20446;-69
2023/04/27 05:37:44;;;;;;;7.73;3.20;;;;;;;;;;5112363;28;20602;-69
2023/04/27 05:40:16;;;;;;;7.40;2.93;;;;;;;;;;5112697;28;20764;-69
2023/04/27 05:42:48;;;;;;;16.47;3.90;;;;;;;;;;5112934;28;20668;-70
2023/04/27 05:45:17;;;;;;;7.27;2.97;;;;;;;;;;5111257;28;20958;-69
2023/04/27 05:47:53;;;;;;;5.63;3.23;;;;;;;;;;5113969;28;20773;-68
2023/04/27 05:50:30;;;;;;;6.40;3.13;;;;;;;;;;5114025;28;20458;-69
2023/04/27 05:52:59;;;;;;;4.87;2.90;;;;;;;;;;5133103;27;20454;-70
2023/04/27 05:55:28;;;;;;;4.47;3.20;;;;;;;;;;5128071;27;20462;-69
2023/04/27 05:57:56;;;;;;;6.13;3.30;;;;;;;;;;5130099;27;20478;-68
2023/04/27 06:00:25;;;;;;;6.40;3.27;;;;;;;;;;5107486;27;20502;-69
2023/04/27 06:02:57;;;;;;;4.47;2.47;;;;;;;;;;5094407;28;20468;-69
2023/04/27 06:05:28;;;;;;;10.07;4.07;;;;;;;;;;5094591;28;20479;-69
2023/04/27 06:07:57;;;;;;;7.13;4.00;;;;;;;;;;5095398;28;20439;-69
2023/04/27 06:10:28;;;;;;;4.23;2.60;;;;;;;;;;5125101;27;20446;-70
2023/04/27 06:12:58;;;;;;;5.50;3.23;;;;;;;;;;5132900;27;20446;-69
2023/04/27 06:15:36;;;;;;;5.90;3.10;;;;;;;;;;5133199;27;20460;-70
2023/04/27 06:18:07;;;;;;;10.23;3.70;;;;;;;;;;5120047;27;20548;-69
2023/04/27 06:20:36;;;;;;;6.40;3.33;;;;;;;;;;5110243;28;20454;-70
2023/04/27 06:23:07;;;;;;;5.67;2.90;;;;;;;;;;5109972;28;20497;-69
2023/04/27 06:25:37;;;;;;;6.73;3.27;;;;;;;;;;5106885;28;20512;-69
2023/04/27 06:28:08;;;;;;;6.83;3.33;;;;;;;;;;5098597;28;20447;-70
2023/04/27 06:30:37;;;;;;;7.37;3.50;;;;;;;;;;5110094;28;20473;-70
2023/04/27 06:33:15;;;;;;;3.83;2.47;;;;;;;;;;5095831;28;20460;-71
2023/04/27 06:35:45;;;;;;;8.30;3.00;;;;;;;;;;5090962;28;20479;-70
2023/04/27 06:38:20;;;;;;;6.77;3.30;;;;;;;;;;5094569;28;20559;-70
2023/04/27 06:40:59;;;;;;;6.40;3.70;;;;;;;;;;5109432;28;20551;-70
2023/04/27 06:43:29;;;;;;;7.30;4.73;;;;;;;;;;5112564;28;20507;-70
2023/04/27 06:45:58;;;;;;;8.23;3.50;;;;;;;;;;5112130;28;20515;-70
2023/04/27 06:48:39;;;;;;;10.33;2.40;;;;;;;;;;5107303;28;20883;-71
2023/04/27 06:51:17;;;;;;;7.83;2.90;;;;;;;;;;5105292;28;20458;-71
2023/04/27 06:53:56;;;;;;;4.97;2.77;;;;;;;;;;5111876;28;20455;-71
2023/04/27 06:56:33;;;;;;;6.47;2.10;;;;;;;;;;5084708;28;20468;-70
2023/04/27 06:59:06;;;;;;;3.90;1.90;;;;;;;;;;5093495;28;20448;-70
2023/04/27 07:01:37;;;;;;;5.37;3.60;;;;;;;;;;5091219;28;20509;-70
2023/04/27 07:04:08;;;;;;;5.63;2.37;;;;;;;;;;5099069;28;20455;-70
2023/04/27 07:06:39;;;;;;;7.07;2.97;;;;;;;;;;5113074;28;20790;-69
2023/04/27 07:09:08;;;;;;;5.17;2.10;;;;;;;;;;5111850;28;20707;-70
2023/04/27 07:11:43;;;;;;;5.13;2.20;;;;;;;;;;5104397;28;20806;-70
2023/04/27 07:14:13;;;;;;;4.27;2.57;;;;;;;;;;5103183;28;20451;-69
2023/04/27 07:16:46;;;;;;;4.57;1.87;;;;;;;;;;5111043;28;20461;-69
2023/04/27 07:19:18;;;;;;;6.70;3.70;;;;;;;;;;5113493;28;20458;-69
2023/04/27 07:21:50;;;;;;;5.53;1.73;;;;;;;;;;5111450;28;20467;-70
2023/04/27 07:24:19;;;;;;;6.37;2.37;;;;;;;;;;5113251;28;20451;-71
2023/04/27 07:26:50;;;;;;;7.90;2.17;;;;;;;;;;5105447;28;21781;-71
2023/04/27 07:29:26;;;;;;;4.50;2.57;;;;;;;;;;5112098;28;20459;-70
2023/04/27 07:31:57;;;;;;;5.77;2.40;;;;;;;;;;5112240;28;20497;-71
2023/04/27 07:34:30;;;;;;;4.53;2.20;;;;;;;;;;5110044;28;20447;-70
2023/04/27 07:37:00;;;;;;;3.83;2.73;;;;;;;;;;5112264;28;20668;-69
2023/04/27 07:39:29;;;;;;;4.97;2.20;;;;;;;;;;5112356;28;20747;-70
2023/04/27 07:44:53;;;;;;;5.63;3.57;;;;;;;;;;5109827;28;20466;-69
2023/04/27 07:47:31;;;;;;;5.33;2.20;;;;;;;;;;5103120;28;20487;-70
2023/04/27 07:55:54;;;;;;;5.10;2.50;;;;;;;;;;5106715;28;20470;-71
2023/04/27 07:58:27;;;;;;;6.40;2.03;;;;;;;;;;5122585;28;20486;-69
2023/04/27 08:01:09;;;;;;;6.23;1.73;;;;;;;;;;5110706;28;20509;-71
2023/04/27 08:03:53;;;;;;;7.57;2.20;;;;;;;;;;5120111;28;20442;-71
2023/04/27 08:06:33;;;;;;;8.03;1.73;;;;;;;;;;5115048;28;20546;-70
2023/04/27 08:09:15;;;;;;;3.60;2.20;;;;;;;;;;5113866;28;20472;-70
2023/04/27 08:23:56;;;;;;;4.67;1.93;;;;;;;;;;5111874;28;20501;-70
2023/04/27 08:26:28;;;;;;;7.80;3.67;;;;;;;;;;5117923;28;20454;-70
2023/04/27 08:29:03;;;;;;;7.20;1.73;;;;;;;;;;5116782;28;20463;-69
2023/04/27 08:31:40;;;;;;;9.10;1.90;;;;;;;;;;5117110;28;20495;-69
2023/04/27 08:34:20;;;;;;;5.00;1.07;;;;;;;;;;5118347;28;20662;-71
2023/04/27 08:36:51;;;;;;;7.40;1.43;;;;;;;;;;5099167;28;20554;-69
2023/04/27 08:39:23;;;;;;;5.40;1.83;;;;;;;;;;5110610;28;20486;-72
2023/04/27 08:41:54;;;;;;;5.07;2.63;;;;;;;;;;5117910;27;20459;-69
2023/04/27 08:44:24;;;;;;;3.73;1.77;;;;;;;;;;5114298;28;20558;-70
2023/04/27 08:46:56;;;;;;;5.17;1.33;;;;;;;;;;5107380;28;20499;-71
2023/04/27 08:49:33;;;;;;;2.63;1.40;;;;;;;;;;5095874;28;20452;-71
2023/04/27 08:52:19;;;;;;;4.90;1.43;;;;;;;;;;5100116;28;20470;-71
2023/04/27 08:54:52;;;;;;;3.80;1.17;;;;;;;;;;5099590;28;20444;-72
2023/04/27 09:00:15;;;;;;;4.83;1.70;;;;;;;;;;5113725;27;20975;-70
2023/04/27 09:06:07;;;;;;;2.50;1.60;;;;;;;;;;5084346;28;20482;-71
2023/04/27 09:08:53;;;;;;;7.80;1.60;;;;;;;;;;5093649;28;20444;-70
2023/04/27 09:14:23;;;;;;;3.70;2.03;;;;;;;;;;5093613;28;20527;-71
2023/04/27 09:17:00;;;;;;;4.73;1.70;;;;;;;;;;5093972;28;20877;-69
2023/04/27 09:19:52;;;;;;;5.37;2.00;;;;;;;;;;5095541;28;20483;-70
2023/04/27 09:23:02;;;;;;;4.13;1.93;;;;;;;;;;5097794;28;20551;-71
2023/04/27 09:25:39;;;;;;;3.57;1.80;;;;;;;;;;5095370;28;20456;-70
2023/04/27 09:28:12;;;;;;;8.13;2.03;;;;;;;;;;5094560;28;20793;-74
2023/04/27 09:30:43;;;;;;;3.20;1.77;;;;;;;;;;5095487;28;20452;-70
2023/04/27 09:33:15;;;;;;;4.07;1.50;;;;;;;;;;5095921;28;20462;-70
2023/04/27 09:35:47;;;;;;;4.57;1.40;;;;;;;;;;5095314;28;20454;-70
2023/04/27 09:38:16;;;;;;;3.50;1.67;;;;;;;;;;5093132;28;20716;-70
2023/04/27 09:40:55;;;;;;;3.37;1.57;;;;;;;;;;5094113;28;20846;-70
2023/04/27 09:43:27;;;;;;;4.40;1.83;;;;;;;;;;5090265;28;20452;-70
2023/04/27 09:46:14;;;;;;;5.07;1.53;;;;;;;;;;5091003;28;21018;-69
2023/04/27 09:48:59;;;;;;;5.50;1.47;;;;;;;;;;5094141;28;20440;-70
2023/04/27 09:51:33;;;;;;;4.43;2.07;;;;;;;;;;5094842;28;20472;-70
2023/04/27 09:54:18;;;;;;;3.03;1.63;;;;;;;;;;5095677;28;20447;-70
2023/04/27 09:57:07;;;;;;;3.70;1.73;;;;;;;;;;5107295;28;20889;-71
2023/04/27 09:59:49;;;;;;;2.90;1.53;;;;;;;;;;5108167;28;20904;-69
2023/04/27 10:02:47;;;;;;;16.63;10.10;;;;;;;;;;5096051;28;20552;-72
2023/04/27 10:05:30;;;;;;;3.47;2.47;;;;;;;;;;5096847;28;20513;-70
2023/04/27 10:08:06;;;;;;;2.20;1.30;;;;;;;;;;5124001;27;20453;-69
2023/04/27 10:10:49;;;;;;;3.83;2.10;;;;;;;;;;5097988;27;20446;-71
2023/04/27 10:13:25;;;;;;;6.30;1.70;;;;;;;;;;5113808;28;20450;-71
2023/04/27 10:15:54;;;;;;;3.87;1.90;;;;;;;;;;5105824;28;20725;-71
2023/04/27 10:18:35;;;;;;;4.53;1.87;;;;;;;;;;5098037;28;20476;-72
2023/04/27 10:21:18;;;;;;;4.10;1.40;;;;;;;;;;5101978;28;20516;-71
2023/04/27 10:26:35;;;;;;;4.37;2.27;;;;;;;;;;5106815;28;20522;-70
2023/04/27 10:29:42;;;;;;;7.37;1.77;;;;;;;;;;5108665;28;20523;-71
2023/04/27 10:35:32;;;;;;;3.73;1.83;;;;;;;;;;5083741;28;20197;-70
2023/04/27 10:38:19;;;;;;;2.87;1.47;;;;;;;;;;5095841;28;20955;-70
2023/04/27 10:41:22;;;;;;;4.40;2.80;;;;;;;;;;5094978;28;20738;-70
2023/04/27 10:44:14;;;;;;;6.30;1.60;;;;;;;;;;5091231;28;20463;-71
2023/04/27 10:47:18;;;;;;;3.80;1.70;;;;;;;;;;5105454;28;20470;-70
2023/04/27 10:50:14;;;;;;;5.20;2.50;;;;;;;;;;5114665;28;20549;-72
2023/04/27 10:53:06;;;;;;;4.03;1.90;;;;;;;;;;5110287;28;20439;-71
2023/04/27 10:55:36;;;;;;;4.10;2.20;;;;;;;;;;5111153;28;20450;-69
2023/04/27 10:58:04;;;;;;;3.40;2.00;;;;;;;;;;5110522;28;20474;-70
2023/04/27 11:00:40;;;;;;;2.80;1.67;;;;;;;;;;5110719;28;20882;-70
2023/04/27 11:03:18;;;;;;;5.30;1.40;;;;;;;;;;5110153;28;20454;-69
2023/04/27 11:06:02;;;;;;;3.50;1.73;;;;;;;;;;5110473;28;20756;-71
2023/04/27 11:12:16;;;;;;;3.47;1.93;;;;;;;;;;5106932;28;20477;-70
2023/04/27 11:17:46;;;;;;;3.83;1.73;;;;;;;;;;5111033;28;20474;-70
2023/04/27 11:23:39;;;;;;;6.50;1.50;;;;;;;;;;5108212;28;20523;-70
2023/04/27 11:26:16;;;;;;;3.40;1.80;;;;;;;;;;5106181;28;20457;-70
2023/04/27 11:29:14;;;;;;;3.00;1.33;;;;;;;;;;5107739;28;20975;-71
2023/04/27 11:31:52;;;;;;;6.43;1.53;;;;;;;;;;5103419;28;20465;-69
2023/04/27 11:34:22;;;;;;;7.23;2.37;;;;;;;;;;5107369;28;20482;-70
2023/04/27 11:37:01;;;;;;;8.47;3.20;;;;;;;;;;5108377;28;20465;-70
2023/04/27 11:39:31;;;;;;;3.70;1.77;;;;;;;;;;5106137;28;20474;-70
2023/04/27 11:42:17;;;;;;;4.20;1.77;;;;;;;;;;5114532;28;20457;-70
2023/04/27 11:44:51;;;;;;;4.30;1.90;;;;;;;;;;5109140;28;20470;-69
2023/04/27 11:47:21;;;;;;;5.77;1.30;;;;;;;;;;5111446;28;21167;-69
2023/04/27 11:49:50;;;;;;;4.17;1.50;;;;;;;;;;5111068;28;20470;-69
2023/04/27 11:52:22;;;;;;;3.93;1.50;;;;;;;;;;5115311;28;20530;-70
2023/04/27 11:54:55;;;;;;;5.87;1.80;;;;;;;;;;5112249;28;20463;-69
2023/04/27 11:57:28;;;;;;;4.27;1.60;;;;;;;;;;5107774;28;20439;-69
2023/04/27 12:00:00;;;;;;;5.17;1.47;;;;;;;;;;5106457;28;20483;-71
2023/04/27 12:02:30;;;;;;;4.87;2.20;;;;;;;;;;5113926;28;20431;-69
2023/04/27 12:05:00;;;;;;;6.00;1.70;;;;;;;;;;5133284;27;20446;-70
2023/04/27 12:07:28;;;;;;;2.73;1.73;;;;;;;;;;5135894;27;20452;-70
2023/04/27 12:09:56;;;;;;;2.53;1.30;;;;;;;;;;5134008;27;20593;-69
2023/04/27 12:12:26;;;;;;;3.97;1.60;;;;;;;;;;5135812;27;20450;-69
2023/04/27 12:14:55;;;;;;;3.00;1.80;;;;;;;;;;5135510;27;20441;-70
2023/04/27 12:17:25;;;;;;;3.60;1.60;;;;;;;;;;5110920;27;20455;-70
2023/04/27 12:19:56;;;;;;;5.20;1.93;;;;;;;;;;5114435;28;20483;-69
2023/04/27 12:22:27;;;;;;;3.73;1.80;;;;;;;;;;5116142;28;20530;-71
2023/04/27 12:27:54;;;;;;;3.93;2.10;;;;;;;;;;5116027;28;20439;-72
2023/04/27 12:30:32;;;;;;;4.27;2.27;;;;;;;;;;5113048;28;20443;-70
2023/04/27 12:33:09;;;;;;;3.80;1.70;;;;;;;;;;5093599;28;20440;-69
2023/04/27 12:35:38;;;;;;;7.43;2.37;;;;;;;;;;5089384;28;21038;-70
2023/04/27 12:38:07;;;;;;;4.80;1.70;;;;;;;;;;5088548;28;20444;-69
2023/04/27 12:40:39;;;;;;;2.53;1.37;;;;;;;;;;5099703;28;20833;-68
2023/04/27 12:43:11;;;;;;;3.50;2.00;;;;;;;;;;5096828;28;20460;-68
2023/04/27 12:45:47;;;;;;;2.80;1.60;;;;;;;;;;5099403;28;20614;-69
2023/04/27 12:48:19;;;;;;;3.90;1.90;;;;;;;;;;5112021;28;20847;-70
2023/04/27 12:50:49;;;;;;;3.60;1.77;;;;;;;;;;5112306;28;20462;-70
2023/04/27 12:53:18;;;;;;;5.73;1.87;;;;;;;;;;5112560;28;20451;-71
2023/04/27 12:55:46;;;;;;;4.00;1.50;;;;;;;;;;5112021;28;20466;-71
2023/04/27 12:58:15;;;;;;;6.23;1.97;;;;;;;;;;5103731;28;20454;-71
2023/04/27 13:00:48;;;;;;;3.30;1.43;;;;;;;;;;5115060;27;20458;-69
2023/04/27 13:03:19;;;;;;;4.60;2.20;;;;;;;;;;5114455;28;20683;-70
2023/04/27 13:05:49;;;;;;;3.43;1.70;;;;;;;;;;5093206;28;20551;-70
2023/04/27 13:11:22;;;;;;;3.87;2.10;;;;;;;;;;5099363;28;20558;-71
2023/04/27 13:14:03;;;;;;;3.00;1.90;;;;;;;;;;5106226;28;20463;-70
2023/04/27 13:16:40;;;;;;;7.50;1.47;;;;;;;;;;5093415;28;20463;-70
2023/04/27 13:19:11;;;;;;;3.23;1.50;;;;;;;;;;5109172;27;20528;-69
2023/04/27 13:21:42;;;;;;;5.73;2.50;;;;;;;;;;5106694;28;20463;-69
2023/04/27 13:24:15;;;;;;;3.53;1.63;;;;;;;;;;5109690;28;20463;-69
2023/04/27 13:27:15;;;;;;;10.30;5.40;;;;;;;;;;5109234;28;20455;-69
2023/04/27 13:29:51;;;;;;;4.70;2.10;;;;;;;;;;5091337;28;20519;-70
2023/04/27 13:32:27;;;;;;;3.73;1.83;;;;;;;;;;5093326;28;20804;-70
2023/04/27 13:34:58;;;;;;;5.13;2.17;;;;;;;;;;5094605;28;20540;-70
2023/04/27 13:37:27;;;;;;;3.73;1.97;;;;;;;;;;5111961;28;20477;-69
2023/04/27 13:39:56;;;;;;;4.47;2.00;;;;;;;;;;5107974;28;20641;-69
2023/04/27 13:42:28;;;;;;;5.07;1.83;;;;;;;;;;5110894;28;20459;-70
2023/04/27 13:45:03;;;;;;;5.93;2.03;;;;;;;;;;5112479;28;20451;-70
2023/04/27 13:47:35;;;;;;;6.33;1.97;;;;;;;;;;5108467;28;20438;-70
2023/04/27 13:50:16;;;;;;;3.70;2.17;;;;;;;;;;5113121;28;20455;-69
2023/04/27 13:52:47;;;;;;;4.70;1.80;;;;;;;;;;5112114;28;20489;-69
2023/04/27 13:55:18;;;;;;;5.40;2.17;;;;;;;;;;5111515;28;20471;-70
2023/04/27 13:57:47;;;;;;;3.20;1.83;;;;;;;;;;5109706;27;21211;-70
2023/04/27 14:00:27;;;;;;;11.33;2.47;;;;;;;;;;5132618;27;20490;-70
2023/04/27 14:08:46;;;;;;;3.30;1.73;;;;;;;;;;5109371;28;20199;-71
2023/04/27 14:11:22;;;;;;;4.70;2.00;;;;;;;;;;5101978;28;20699;-68
2023/04/27 14:13:51;;;;;;;4.20;1.70;;;;;;;;;;5099010;27;20453;-69
2023/04/27 14:16:26;;;;;;;5.10;2.00;;;;;;;;;;5130022;27;20874;-68
2023/04/27 14:18:55;;;;;;;3.83;2.10;;;;;;;;;;5133739;27;20474;-73
2023/04/27 14:21:34;;;;;;;4.37;1.90;;;;;;;;;;5133027;27;20537;-71
2023/04/27 14:24:17;;;;;;;8.10;2.10;;;;;;;;;;5138361;27;20861;-70
2023/04/27 14:26:52;;;;;;;2.87;1.50;;;;;;;;;;5131812;27;20442;-68
2023/04/27 14:29:21;;;;;;;2.90;1.57;;;;;;;;;;5132010;27;20517;-68
2023/04/27 14:34:54;;;;;;;4.20;2.03;;;;;;;;;;5106208;28;21015;-69
2023/04/27 14:37:24;;;;;;;4.73;2.30;;;;;;;;;;5095019;28;21081;-71
2023/04/27 14:43:10;;;;;;;4.80;1.80;;;;;;;;;;5073030;28;21085;-69
2023/04/27 14:45:39;;;;;;;4.23;1.93;;;;;;;;;;5096209;27;20451;-70
2023/04/27 14:48:10;;;;;;;4.33;2.57;;;;;;;;;;5132084;27;20549;-68
2023/04/27 14:50:38;;;;;;;5.43;2.10;;;;;;;;;;5107740;27;20468;-68
2023/04/27 14:53:24;;;;;;;4.43;1.90;;;;;;;;;;5102766;28;20552;-70
2023/04/27 14:55:57;;;;;;;6.33;2.10;;;;;;;;;;5098034;28;20560;-71
2023/04/27 14:58:30;;;;;;;4.00;1.87;;;;;;;;;;5088858;28;20499;-70
2023/04/27 15:00:59;;;;;;;4.20;2.00;;;;;;;;;;5088129;28;20503;-69
2023/04/27 15:03:29;;;;;;;4.70;1.67;;;;;;;;;;5090017;28;20476;-71
2023/04/27 15:05:57;;;;;;;5.03;2.00;;;;;;;;;;5083420;28;20456;-69
2023/04/27 15:08:30;;;;;;;7.20;2.40;;;;;;;;;;5087630;28;20432;-71
2023/04/27 15:11:13;;;;;;;4.10;1.90;;;;;;;;;;5098986;28;20451;-69
2023/04/27 15:13:53;;;;;;;4.40;2.23;;;;;;;;;;5110594;28;20465;-69
2023/04/27 15:16:28;;;;;;;4.83;1.80;;;;;;;;;;5104144;28;20447;-70
2023/04/27 15:19:06;;;;;;;4.50;1.97;;;;;;;;;;5114738;28;20537;-70
2023/04/27 15:21:35;;;;;;;6.23;2.17;;;;;;;;;;5116765;28;20451;-69
2023/04/27 15:24:19;;;;;;;4.70;2.40;;;;;;;;;;5107656;28;20472;-69
2023/04/27 15:26:48;;;;;;;5.87;3.00;;;;;;;;;;5105382;28;20443;-70
2023/04/27 15:29:19;;;;;;;4.73;2.23;;;;;;;;;;5109590;28;20697;-69
2023/04/27 15:31:54;;;;;;;4.30;1.90;;;;;;;;;;5106590;28;20454;-69
2023/04/27 15:34:31;;;;;;;5.30;2.80;;;;;;;;;;5115178;28;20461;-72
2023/04/27 15:37:02;;;;;;;3.33;2.10;;;;;;;;;;5114008;28;20507;-70
2023/04/27 15:39:33;;;;;;;6.80;2.60;;;;;;;;;;5111693;28;20485;-70
2023/04/27 15:42:10;;;;;;;4.80;2.03;;;;;;;;;;5112381;28;20461;-69
2023/04/27 15:44:42;;;;;;;5.90;2.47;;;;;;;;;;5109140;28;20455;-70
2023/04/27 15:47:19;;;;;;;5.33;2.33;;;;;;;;;;5111385;28;20519;-71
2023/04/27 15:49:53;;;;;;;2.73;1.80;;;;;;;;;;5088916;28;20454;-70
2023/04/27 15:52:33;;;;;;;7.77;2.70;;;;;;;;;;5096338;28;20458;-70
2023/04/27 15:55:09;;;;;;;4.10;2.27;;;;;;;;;;5106067;28;20635;-70
2023/04/27 16:03:36;;;;;;;5.13;2.37;;;;;;;;;;5100932;28;20562;-71
2023/04/27 16:06:06;;;;;;;5.43;2.43;;;;;;;;;;5089612;28;20586;-71
2023/04/27 16:08:44;;;;;;;3.20;1.73;;;;;;;;;;5102286;28;20744;-70
2023/04/27 16:11:16;;;;;;;4.70;2.77;;;;;;;;;;5111894;28;20648;-70
2023/04/27 16:13:47;;;;;;;9.07;2.67;;;;;;;;;;5102693;28;20461;-71
2023/04/27 16:16:16;;;;;;;8.07;2.40;;;;;;;;;;5091136;28;20466;-70
2023/04/27 16:18:45;;;;;;;3.93;1.90;;;;;;;;;;5089148;28;20520;-69
2023/04/27 16:21:14;;;;;;;8.73;3.90;;;;;;;;;;5089529;28;20524;-70
2023/04/27 16:23:42;;;;;;;6.17;2.57;;;;;;;;;;5093163;28;21214;-70
2023/04/27 16:26:10;;;;;;;5.00;2.40;;;;;;;;;;5092162;28;20456;-71
2023/04/27 16:28:46;;;;;;;6.63;2.13;;;;;;;;;;5109089;27;20457;-69
2023/04/27 16:31:21;;;;;;;4.57;2.43;;;;;;;;;;5111383;28;20941;-70
2023/04/27 16:33:55;;;;;;;4.63;1.80;;;;;;;;;;5111982;28;20458;-69
2023/04/27 16:36:37;;;;;;;4.60;2.60;;;;;;;;;;5112250;28;20469;-71
2023/04/27 16:39:08;;;;;;;3.97;2.60;;;;;;;;;;5104272;28;21068;-72
2023/04/27 16:41:37;;;;;;;5.17;2.37;;;;;;;;;;5113587;28;20496;-71
2023/04/27 16:44:18;;;;;;;2.90;1.73;;;;;;;;;;5114974;28;20451;-69
2023/04/27 16:46:49;;;;;;;6.27;4.40;;;;;;;;;;5105978;28;20878;-70
2023/04/27 16:49:19;;;;;;;5.60;2.90;;;;;;;;;;5115642;27;20463;-70
2023/04/27 16:52:04;;;;;;;5.30;2.30;;;;;;;;;;5100358;28;20898;-70
2023/04/27 16:54:48;;;;;;;5.57;2.27;;;;;;;;;;5100647;28;20459;-70
2023/04/27 16:57:17;;;;;;;6.47;3.13;;;;;;;;;;5129043;27;20464;-70
2023/04/27 16:59:49;;;;;;;7.00;3.10;;;;;;;;;;5137044;27;20434;-71
2023/04/27 17:02:17;;;;;;;3.70;2.67;;;;;;;;;;5095023;27;20505;-70
2023/04/27 17:04:46;;;;;;;5.40;2.70;;;;;;;;;;5102619;28;20438;-71
2023/04/27 17:07:16;;;;;;;6.70;2.50;;;;;;;;;;5115412;28;20300;-69